createdAt,value
2022-12-15T00:03:50.157Z,99183.40
2022-12-15T00:09:11.231Z,99187.80
2022-12-15T00:14:34.876Z,99184.60
2022-12-15T00:19:51.257Z,99186.80
2022-12-15T00:25:08.722Z,99184.80
2022-12-15T00:30:29.197Z,99186.80
2022-12-15T00:35:45.804Z,99185.60
2022-12-15T00:40:45.103Z,99183.40
2022-12-15T00:46:02.914Z,99179.40
2022-12-15T00:51:02.209Z,99180.60
2022-12-15T00:56:19.750Z,99173.40
2022-12-15T01:01:36.630Z,99176.20
2022-12-15T01:06:53.837Z,99175.80
2022-12-15T01:12:11.320Z,99171.60
2022-12-15T01:17:28.294Z,99158.00
2022-12-15T01:22:31.607Z,99160.00
2022-12-15T01:27:31.387Z,99165.20
2022-12-15T01:32:33.514Z,99165.20
2022-12-15T01:37:32.513Z,99158.80
2022-12-15T01:42:31.933Z,99154.60
2022-12-15T01:47:32.103Z,99158.80
2022-12-15T01:52:31.626Z,99164.80
2022-12-15T01:57:36.677Z,99166.20
2022-12-15T02:02:40.572Z,99153.40
2022-12-15T02:07:40.296Z,99155.60
2022-12-15T02:12:51.416Z,99157.20
2022-12-15T02:18:04.507Z,99147.00
2022-12-15T02:23:45.720Z,99162.00
2022-12-15T02:29:01.254Z,99157.20
2022-12-15T02:34:12.134Z,99164.80
2022-12-15T02:39:13.231Z,99162.80
2022-12-15T02:44:19.490Z,99163.20
2022-12-15T02:49:32.371Z,99164.80
2022-12-15T02:54:58.567Z,99169.20
2022-12-15T03:00:06.736Z,99174.60
2022-12-15T03:05:07.091Z,99174.20
2022-12-15T03:10:11.955Z,99173.00
2022-12-15T03:15:13.162Z,99181.20
2022-12-15T03:20:14.521Z,99174.60
2022-12-15T03:25:14.355Z,99178.00
2022-12-15T03:30:17.465Z,99183.20
2022-12-15T03:35:17.571Z,99183.80
2022-12-15T03:40:17.804Z,99187.20
2022-12-15T03:45:18.174Z,99196.20
2022-12-15T03:50:21.238Z,99199.80
2022-12-15T03:55:21.197Z,99204.60
2022-12-15T04:00:24.713Z,99201.40
2022-12-15T04:05:28.254Z,99199.20
2022-12-15T04:10:34.425Z,99198.80
2022-12-15T04:15:35.267Z,99209.00
2022-12-15T04:20:34.529Z,99206.00
2022-12-15T04:25:50.555Z,99213.60
2022-12-15T04:31:11.443Z,99216.40
2022-12-15T04:36:32.015Z,99219.00
2022-12-15T04:41:50.350Z,99222.80
2022-12-15T04:47:07.112Z,99227.60
2022-12-15T04:52:24.346Z,99231.80
2022-12-15T04:57:40.978Z,99235.60
2022-12-15T05:02:57.307Z,99235.00
2022-12-15T05:08:18.035Z,99244.60
2022-12-15T05:13:35.493Z,99252.80
2022-12-15T05:18:52.237Z,99263.20
2022-12-15T05:24:08.784Z,99269.00
2022-12-15T05:29:26.414Z,99277.20
2022-12-15T05:34:29.577Z,99280.40
2022-12-15T05:39:29.136Z,99284.00
2022-12-15T05:44:29.878Z,99295.80
2022-12-15T05:49:29.670Z,99308.60
2022-12-15T05:54:29.053Z,99320.20
2022-12-15T05:59:30.767Z,99325.80
2022-12-15T06:04:29.590Z,99317.80
2022-12-15T06:09:29.267Z,99330.20
2022-12-15T06:14:31.421Z,99341.60
2022-12-15T06:19:30.609Z,99356.20
2022-12-15T06:24:29.945Z,99370.80
2022-12-15T06:29:30.122Z,99383.20
2022-12-15T06:34:30.704Z,99383.40
2022-12-15T06:39:29.675Z,99403.60
2022-12-15T06:44:29.340Z,99408.80
2022-12-15T06:49:28.806Z,99414.40
2022-12-15T06:54:28.721Z,99425.00
2022-12-15T06:59:27.576Z,99428.40
2022-12-15T07:04:27.322Z,99440.40
2022-12-15T07:09:27.884Z,99441.60
2022-12-15T07:14:27.493Z,99453.00
2022-12-15T07:19:28.994Z,99461.80
2022-12-15T07:24:28.172Z,99459.60
2022-12-15T07:29:27.663Z,99469.00
2022-12-15T07:34:27.428Z,99486.20
2022-12-15T07:39:27.522Z,99500.40
2022-12-15T07:44:26.899Z,99513.80
2022-12-15T07:49:26.253Z,99531.40
2022-12-15T07:54:27.695Z,99532.80
2022-12-15T07:59:27.057Z,99533.80
2022-12-15T08:04:26.961Z,99549.00
2022-12-15T08:09:26.589Z,99546.80
2022-12-15T08:14:25.778Z,99552.60
2022-12-15T08:19:24.750Z,99559.40
2022-12-15T08:24:24.103Z,99569.20
2022-12-15T08:34:42.514Z,99594.40
2022-12-15T08:39:41.754Z,99594.60
2022-12-15T08:44:41.055Z,99596.80
2022-12-15T08:49:40.520Z,99606.60
2022-12-15T08:54:40.538Z,99615.40
2022-12-15T08:59:40.350Z,99621.80
2022-12-15T09:04:41.038Z,99632.40
2022-12-15T09:09:40.306Z,99630.40
2022-12-15T09:14:41.414Z,99636.40
2022-12-15T09:19:40.322Z,99643.60
2022-12-15T09:24:40.115Z,99648.60
2022-12-15T09:29:39.363Z,99640.80
2022-12-15T09:34:39.229Z,99658.40
2022-12-15T09:39:40.186Z,99663.20
2022-12-15T09:44:40.622Z,99674.00
2022-12-15T09:49:52.725Z,99681.40
2022-12-15T09:54:51.927Z,99679.80
2022-12-15T10:00:10.140Z,99677.20
2022-12-15T10:05:38.194Z,99682.00
2022-12-15T10:10:56.050Z,99685.60
2022-12-15T10:16:02.417Z,99695.80
2022-12-15T10:21:03.972Z,99704.00
2022-12-15T10:26:22.579Z,99710.40
2022-12-15T10:31:35.348Z,99711.20
2022-12-15T10:36:35.784Z,99713.60
2022-12-15T10:41:38.223Z,99722.00
2022-12-15T10:46:38.443Z,99722.00
2022-12-15T10:51:44.770Z,99734.60
2022-12-15T10:56:54.961Z,99735.80
2022-12-15T11:01:55.614Z,99749.20
2022-12-15T11:07:03.134Z,99743.60
2022-12-15T11:12:20.664Z,99748.40
2022-12-15T11:17:24.279Z,99754.60
2022-12-15T11:22:37.263Z,99750.80
2022-12-15T11:27:43.442Z,99763.40
2022-12-15T11:32:49.045Z,99762.60
2022-12-15T11:37:51.083Z,99777.20
2022-12-15T11:43:11.247Z,99781.40
2022-12-15T11:48:19.610Z,99779.00
2022-12-15T11:53:58.126Z,99797.20
2022-12-15T11:59:33.764Z,99805.00
2022-12-15T12:04:43.428Z,99812.20
2022-12-15T12:09:56.978Z,99816.80
2022-12-15T12:15:20.847Z,99827.20
2022-12-15T12:20:26.271Z,99831.60
2022-12-15T12:25:29.994Z,99839.40
2022-12-15T12:30:34.930Z,99849.40
2022-12-15T12:35:42.937Z,99858.20
2022-12-15T12:41:02.911Z,99863.00
2022-12-15T12:46:10.305Z,99874.40
2022-12-15T12:51:25.114Z,99882.00
2022-12-15T12:56:41.055Z,99886.80
2022-12-15T13:01:41.762Z,99894.40
2022-12-15T13:07:26.729Z,99890.80
2022-12-15T13:12:53.484Z,99906.20
2022-12-15T13:18:00.553Z,99902.60
2022-12-15T13:23:34.414Z,99904.00
2022-12-15T13:28:50.746Z,99915.80
2022-12-15T13:34:02.715Z,99915.00
2022-12-15T13:39:02.179Z,99930.20
2022-12-15T13:44:13.822Z,99936.80
2022-12-15T13:49:26.179Z,99941.40
2022-12-15T13:54:36.937Z,99952.80
2022-12-15T13:59:49.319Z,99957.40
2022-12-15T14:05:04.461Z,99961.60
2022-12-15T14:10:05.551Z,99970.40
2022-12-15T14:15:05.427Z,99967.60
2022-12-15T14:20:24.156Z,99968.40
2022-12-15T14:25:29.357Z,99972.00
2022-12-15T14:30:33.124Z,99978.80
2022-12-15T14:35:42.437Z,99971.20
2022-12-15T14:40:43.683Z,99971.60
2022-12-15T14:45:46.186Z,99968.40
2022-12-15T14:50:51.353Z,99965.40
2022-12-15T14:55:51.488Z,99964.60
2022-12-15T15:00:56.312Z,99972.60
2022-12-15T15:06:01.245Z,99984.80
2022-12-15T15:11:06.066Z,99997.20
2022-12-15T15:16:16.549Z,99996.00
2022-12-15T15:21:23.669Z,100007.40
2022-12-15T15:26:25.859Z,100007.60
2022-12-15T15:31:41.906Z,100019.60
2022-12-15T15:36:42.224Z,100028.20
2022-12-15T15:41:42.940Z,100025.00
2022-12-15T15:46:49.881Z,100029.80
2022-12-15T15:51:49.270Z,100026.20
2022-12-15T15:56:48.569Z,100038.20
2022-12-15T16:01:51.379Z,100051.20
2022-12-15T16:06:50.425Z,100073.40
2022-12-15T16:11:50.922Z,100067.80
2022-12-15T16:16:50.696Z,100068.40
2022-12-15T16:21:51.294Z,100085.20
2022-12-15T16:26:53.840Z,100101.20
2022-12-15T16:38:31.754Z,100118.60
2022-12-15T16:43:37.292Z,100130.20
2022-12-15T16:48:38.224Z,100139.20
2022-12-15T16:53:42.012Z,100131.00
2022-12-15T16:58:40.647Z,100148.40
2022-12-15T17:03:39.309Z,100159.60
2022-12-15T17:08:46.491Z,100156.40
2022-12-15T17:13:51.179Z,100157.60
2022-12-15T17:18:50.507Z,100165.20
2022-12-15T17:23:54.988Z,100176.00
2022-12-15T17:28:54.742Z,100179.80
2022-12-15T17:33:54.385Z,100179.20
2022-12-15T17:38:58.104Z,100171.00
2022-12-15T17:44:31.147Z,100166.00
2022-12-15T17:49:17.985Z,100164.40
2022-12-15T17:54:20.820Z,100165.60
2022-12-15T17:59:21.335Z,100160.60
2022-12-15T18:04:20.751Z,100172.20
2022-12-15T18:09:22.642Z,100181.80
2022-12-15T18:14:23.159Z,100171.60
2022-12-15T18:19:23.435Z,100176.40
2022-12-15T18:24:22.788Z,100168.20
2022-12-15T18:29:22.971Z,100178.40
2022-12-15T18:34:24.003Z,100178.40
2022-12-15T18:39:26.516Z,100177.40
2022-12-15T18:44:29.215Z,100176.00
2022-12-15T18:49:29.920Z,100176.20
2022-12-15T18:54:29.726Z,100193.60
2022-12-15T18:59:30.947Z,100190.60
2022-12-15T19:04:30.842Z,100194.20
2022-12-15T19:09:32.236Z,100189.00
2022-12-15T19:14:43.447Z,100199.20
2022-12-15T19:20:00.113Z,100207.40
2022-12-15T19:24:59.158Z,100217.00
2022-12-15T19:29:59.736Z,100225.40
2022-12-15T19:35:02.238Z,100224.00
2022-12-15T19:40:04.025Z,100227.20
2022-12-15T19:45:03.818Z,100230.00
2022-12-15T19:50:02.942Z,100229.40
2022-12-15T19:55:02.768Z,100227.40
2022-12-15T20:00:02.793Z,100223.00
2022-12-15T20:05:46.188Z,100221.60
2022-12-15T20:10:57.099Z,100235.80
2022-12-15T20:15:58.635Z,100234.60
2022-12-15T20:20:57.808Z,100236.60
2022-12-15T20:25:58.766Z,100225.20
2022-12-15T20:30:59.744Z,100227.20
2022-12-15T20:35:58.680Z,100233.00
2022-12-15T20:40:59.186Z,100228.80
2022-12-15T20:46:14.459Z,100237.80
2022-12-15T20:51:23.129Z,100233.20
2022-12-15T20:56:23.545Z,100224.40
2022-12-15T21:01:30.555Z,100216.80
2022-12-15T21:06:31.874Z,100227.40
2022-12-15T21:11:35.089Z,100225.60
2022-12-15T21:16:35.197Z,100238.40
2022-12-15T21:21:39.646Z,100241.80
2022-12-15T21:26:38.388Z,100239.20
2022-12-15T21:31:37.047Z,100241.60
2022-12-15T21:36:36.031Z,100252.20
2022-12-15T21:41:35.808Z,100239.00
2022-12-15T21:46:35.092Z,100247.40
2022-12-15T21:51:40.626Z,100245.60
2022-12-15T21:56:40.129Z,100239.80
2022-12-15T22:01:39.525Z,100248.60
2022-12-15T22:06:39.072Z,100236.80
2022-12-15T22:11:38.313Z,100236.20
2022-12-15T22:16:38.039Z,100218.60
2022-12-15T22:21:37.708Z,100222.40
2022-12-15T22:26:36.912Z,100220.20
2022-12-15T22:31:36.367Z,100238.40
2022-12-15T22:36:35.550Z,100241.00
2022-12-15T22:41:35.621Z,100244.60
2022-12-15T22:46:34.909Z,100260.00
2022-12-15T22:51:35.296Z,100258.00
2022-12-15T22:56:41.969Z,100259.80
2022-12-15T23:01:42.093Z,100262.80
2022-12-15T23:06:41.837Z,100262.80
2022-12-15T23:11:42.067Z,100259.80
2022-12-15T23:16:41.979Z,100265.40
2022-12-15T23:21:41.079Z,100246.40
2022-12-15T23:26:40.766Z,100245.20
2022-12-15T23:31:40.221Z,100247.80
2022-12-15T23:36:39.532Z,100256.20
2022-12-15T23:41:38.721Z,100263.80
2022-12-15T23:46:37.490Z,100258.80
2022-12-15T23:51:36.927Z,100260.20
2022-12-15T23:56:35.642Z,100269.00
